Time;durP1;ratioP1;P1;durP2;ratioP2;P2;SDS_P1;SDS_P2;PMS_P1;PMS_P2;Temp;Humidity;BMP_temperature;BMP_pressure;BME280_temperature;BME280_humidity;BME280_pressure;Samples;Min_cycle;Max_cycle;Signal;HPM_P1;HPM_P2
2021/03/23 00:01:14;;;;;;;11.73;6.18;;;5.70;99.90;;;;;;5111824;28;20031;-72
2021/03/23 00:03:43;;;;;;;14.95;6.28;;;5.70;99.90;;;;;;5114622;28;20020;-71
2021/03/23 00:06:12;;;;;;;10.07;6.85;;;5.80;99.90;;;;;;5113497;28;20032;-72
2021/03/23 00:08:46;;;;;;;11.27;6.00;;;5.90;99.90;;;;;;5114516;28;20042;-72
2021/03/23 00:11:22;;;;;;;13.77;6.57;;;5.90;99.90;;;;;;5114101;28;20016;-71
2021/03/23 00:13:49;;;;;;;15.60;6.82;;;5.90;99.90;;;;;;5100983;28;20074;-71
2021/03/23 00:16:21;;;;;;;13.88;7.53;;;5.90;99.90;;;;;;5113210;28;20433;-70
2021/03/23 00:18:47;;;;;;;12.55;6.53;;;6.00;99.90;;;;;;5114639;28;20035;-71
2021/03/23 00:21:14;;;;;;;15.48;6.53;;;6.00;99.90;;;;;;5113253;28;20031;-71
2021/03/23 00:23:40;;;;;;;12.55;6.72;;;5.90;99.90;;;;;;5114176;28;20106;-71
2021/03/23 00:26:07;;;;;;;13.40;6.65;;;6.00;99.90;;;;;;5113635;28;20449;-72
2021/03/23 00:28:35;;;;;;;16.52;6.72;;;6.00;99.90;;;;;;5113071;28;20038;-71
2021/03/23 00:31:01;;;;;;;14.80;6.82;;;6.00;99.90;;;;;;5113542;28;20475;-72
2021/03/23 00:33:27;;;;;;;15.07;7.53;;;6.00;99.90;;;;;;5114161;28;20018;-72
2021/03/23 00:35:56;;;;;;;14.52;7.30;;;6.00;99.90;;;;;;5112956;28;20043;-72
2021/03/23 00:38:22;;;;;;;14.68;7.50;;;6.00;99.90;;;;;;5113765;28;20397;-71
2021/03/23 00:40:49;;;;;;;15.25;7.07;;;6.00;99.90;;;;;;5113073;28;20118;-71
2021/03/23 00:43:15;;;;;;;16.80;7.10;;;6.00;99.90;;;;;;5113423;28;20384;-71
2021/03/23 00:45:42;;;;;;;14.05;6.80;;;6.00;99.90;;;;;;5113404;28;20019;-71
2021/03/23 00:48:09;;;;;;;11.25;7.38;;;6.00;99.90;;;;;;5112374;28;20517;-70
2021/03/23 00:50:35;;;;;;;13.35;7.43;;;6.10;99.90;;;;;;5110163;28;20118;-73
2021/03/23 00:53:01;;;;;;;14.57;8.13;;;6.10;99.90;;;;;;5092845;28;20536;-71
2021/03/23 00:55:27;;;;;;;17.70;8.55;;;6.00;99.90;;;;;;5092189;28;20032;-71
2021/03/23 00:57:52;;;;;;;12.80;7.93;;;6.10;99.90;;;;;;5092850;28;20044;-71
2021/03/23 01:00:20;;;;;;;17.25;9.40;;;6.10;99.90;;;;;;5093173;28;20111;-71
2021/03/23 01:02:46;;;;;;;24.30;8.88;;;6.00;99.90;;;;;;5092179;28;20020;-72
2021/03/23 01:05:14;;;;;;;17.95;8.82;;;6.10;99.90;;;;;;5092908;28;20028;-71
2021/03/23 01:07:40;;;;;;;18.48;9.52;;;6.10;99.90;;;;;;5092815;28;20019;-72
2021/03/23 01:10:08;;;;;;;18.83;9.07;;;6.10;99.90;;;;;;5091981;28;20028;-71
2021/03/23 01:12:34;;;;;;;20.88;9.13;;;6.20;99.90;;;;;;5092686;28;20483;-71
2021/03/23 01:14:59;;;;;;;18.65;9.27;;;6.10;99.90;;;;;;5092189;28;20105;-71
2021/03/23 01:17:28;;;;;;;18.27;10.18;;;6.20;99.90;;;;;;5091977;28;20133;-71
2021/03/23 01:19:56;;;;;;;16.77;8.32;;;6.20;99.90;;;;;;5092493;28;20024;-71
2021/03/23 01:22:22;;;;;;;21.95;10.77;;;6.20;99.90;;;;;;5093023;28;20031;-73
2021/03/23 01:24:47;;;;;;;17.80;9.88;;;6.20;99.90;;;;;;5091694;28;20376;-71
2021/03/23 01:27:13;;;;;;;26.85;10.18;;;6.20;99.90;;;;;;5092589;28;20028;-71
2021/03/23 01:29:39;;;;;;;20.10;9.82;;;6.20;99.90;;;;;;5092557;28;20103;-71
2021/03/23 01:32:05;;;;;;;19.25;10.05;;;6.30;99.90;;;;;;5091685;28;20069;-72
2021/03/23 01:34:30;;;;;;;17.52;9.85;;;6.30;99.90;;;;;;5093187;28;20030;-71
2021/03/23 01:36:56;;;;;;;24.23;10.18;;;6.30;99.90;;;;;;5111858;28;20028;-71
2021/03/23 01:39:22;;;;;;;25.42;10.60;;;6.90;99.90;;;;;;5098548;28;20030;-72
2021/03/23 01:41:47;;;;;;;21.20;10.25;;;6.30;99.90;;;;;;5092302;28;20116;-71
2021/03/23 01:44:13;;;;;;;16.67;9.73;;;6.30;99.90;;;;;;5091464;28;20170;-71
2021/03/23 01:46:42;;;;;;;19.30;10.98;;;6.30;99.90;;;;;;5092180;28;20431;-71
2021/03/23 01:49:21;;;;;;;27.20;11.98;;;6.30;99.90;;;;;;5091843;28;20472;-72
2021/03/23 01:51:51;;;;;;;22.17;11.05;;;6.40;99.90;;;;;;5104981;28;20032;-71
2021/03/23 01:54:22;;;;;;;22.48;10.65;;;6.40;99.90;;;;;;5092404;28;20107;-71
2021/03/23 01:56:50;;;;;;;23.95;11.05;;;6.40;99.90;;;;;;5092370;28;20077;-71
2021/03/23 01:59:17;;;;;;;25.05;11.43;;;6.40;99.90;;;;;;5091220;28;20034;-71
2021/03/23 02:01:42;;;;;;;24.83;12.65;;;6.40;99.90;;;;;;5092127;28;20059;-71
2021/03/23 02:04:08;;;;;;;16.38;10.23;;;6.40;99.90;;;;;;5091551;28;20971;-71
2021/03/23 02:06:36;;;;;;;21.17;10.40;;;6.40;99.90;;;;;;5091318;28;20471;-71
2021/03/23 02:09:15;;;;;;;26.30;11.88;;;6.40;99.90;;;;;;5091523;28;20464;-71
2021/03/23 02:11:52;;;;;;;30.38;12.85;;;6.40;99.90;;;;;;5092253;28;20028;-72
2021/03/23 02:14:20;;;;;;;32.38;12.43;;;6.40;99.90;;;;;;5091560;28;20028;-71
2021/03/23 02:16:47;;;;;;;29.52;11.70;;;6.40;99.90;;;;;;5091642;28;20059;-72
2021/03/23 02:19:16;;;;;;;25.83;11.65;;;6.40;99.90;;;;;;5091092;28;20027;-72
2021/03/23 02:21:42;;;;;;;25.98;12.82;;;6.40;99.90;;;;;;5091813;28;20020;-70
2021/03/23 02:24:10;;;;;;;25.85;12.13;;;6.40;99.90;;;;;;5091621;28;20150;-71
2021/03/23 02:26:36;;;;;;;23.23;12.13;;;6.40;99.90;;;;;;5091092;28;20089;-71
2021/03/23 02:29:12;;;;;;;24.40;11.55;;;6.40;99.90;;;;;;5091517;28;20103;-71
2021/03/23 02:31:46;;;;;;;27.50;13.80;;;6.40;99.90;;;;;;5091939;28;20020;-71
2021/03/23 02:34:15;;;;;;;30.98;14.27;;;6.40;99.90;;;;;;5090969;28;20024;-71
2021/03/23 02:36:42;;;;;;;25.02;13.57;;;6.30;99.90;;;;;;5091903;28;20079;-71
2021/03/23 02:39:14;;;;;;;28.83;14.05;;;6.30;99.90;;;;;;5091409;28;20028;-71
2021/03/23 02:41:40;;;;;;;29.17;12.55;;;6.30;99.90;;;;;;5094842;28;20390;-72
2021/03/23 02:44:06;;;;;;;47.65;14.95;;;6.20;99.90;;;;;;5111911;28;20020;-72
2021/03/23 02:46:32;;;;;;;30.02;14.40;;;6.20;99.90;;;;;;5109884;28;20020;-70
2021/03/23 02:48:58;;;;;;;24.80;13.57;;;6.20;99.90;;;;;;5090816;28;20424;-71
2021/03/23 02:51:24;;;;;;;33.25;14.70;;;6.20;99.90;;;;;;5103485;28;20024;-72
2021/03/23 02:53:49;;;;;;;28.83;13.93;;;6.10;99.90;;;;;;5099088;28;20035;-71
2021/03/23 02:56:16;;;;;;;29.98;14.80;;;6.20;99.90;;;;;;5094665;28;20036;-72
2021/03/23 02:58:42;;;;;;;34.13;14.38;;;6.20;99.90;;;;;;5095555;28;20020;-71
2021/03/23 03:01:09;;;;;;;33.35;15.52;;;6.20;99.90;;;;;;5095829;28;20027;-71
2021/03/23 03:03:34;;;;;;;33.42;16.17;;;6.10;99.90;;;;;;5094828;28;20024;-71
2021/03/23 03:06:00;;;;;;;30.10;15.40;;;6.10;99.90;;;;;;5094897;28;20444;-71
2021/03/23 03:08:26;;;;;;;27.77;15.02;;;6.10;99.90;;;;;;5094471;28;20020;-72
2021/03/23 03:10:53;;;;;;;27.60;15.75;;;6.10;99.90;;;;;;5094606;28;20031;-72
2021/03/23 03:13:22;;;;;;;31.30;16.73;;;6.00;99.90;;;;;;5094397;28;20402;-71
2021/03/23 03:15:52;;;;;;;35.53;16.77;;;6.00;99.90;;;;;;5093837;28;20131;-71
2021/03/23 03:18:19;;;;;;;37.08;15.68;;;5.90;99.90;;;;;;5095154;28;20016;-72
2021/03/23 03:20:45;;;;;;;35.78;16.65;;;6.00;99.90;;;;;;5094826;28;20032;-72
2021/03/23 03:23:11;;;;;;;38.58;18.08;;;6.00;99.90;;;;;;5093760;28;20024;-71
2021/03/23 03:25:37;;;;;;;35.95;17.23;;;5.90;99.90;;;;;;5094814;28;20035;-71
2021/03/23 03:28:04;;;;;;;33.20;17.35;;;5.90;99.90;;;;;;5112726;28;20020;-71
2021/03/23 03:30:32;;;;;;;45.03;17.88;;;5.90;99.90;;;;;;5114828;28;20177;-71
2021/03/23 03:32:58;;;;;;;42.28;18.92;;;5.90;99.90;;;;;;5114700;28;20122;-71
2021/03/23 03:35:27;;;;;;;47.30;18.38;;;5.90;99.90;;;;;;5114627;28;20027;-72
2021/03/23 03:37:53;;;;;;;42.38;20.15;;;5.90;99.90;;;;;;5113746;28;20038;-71
2021/03/23 03:40:22;;;;;;;45.28;18.98;;;5.80;99.90;;;;;;5114926;28;20019;-72
2021/03/23 03:42:48;;;;;;;47.88;22.13;;;5.80;99.90;;;;;;5113527;27;20551;-72
2021/03/23 03:45:15;;;;;;;39.78;20.23;;;5.80;99.90;;;;;;5110444;28;20059;-72
2021/03/23 03:47:40;;;;;;;37.55;19.05;;;5.90;99.90;;;;;;5107535;28;20103;-71
2021/03/23 03:50:07;;;;;;;47.58;20.13;;;5.80;99.90;;;;;;5099880;28;20201;-71
2021/03/23 03:52:33;;;;;;;34.55;19.25;;;5.80;99.90;;;;;;5101584;27;20495;-72
2021/03/23 03:54:58;;;;;;;43.95;20.80;;;5.70;99.90;;;;;;5094005;28;20120;-72
2021/03/23 03:57:24;;;;;;;38.83;19.48;;;5.70;99.90;;;;;;5094431;28;20045;-72
2021/03/23 03:59:49;;;;;;;47.97;19.70;;;5.70;99.90;;;;;;5107338;28;20482;-72
2021/03/23 04:02:16;;;;;;;40.35;20.85;;;5.70;99.90;;;;;;5093931;28;20062;-71
2021/03/23 04:04:46;;;;;;;50.13;22.08;;;5.70;99.90;;;;;;5093477;28;20027;-70
2021/03/23 04:07:11;;;;;;;46.25;20.63;;;5.60;99.90;;;;;;5094518;28;20042;-71
2021/03/23 04:09:37;;;;;;;44.25;22.38;;;5.60;99.90;;;;;;5094649;28;20020;-71
2021/03/23 04:12:04;;;;;;;46.78;21.80;;;5.60;99.90;;;;;;5093898;28;20032;-71
2021/03/23 04:14:30;;;;;;;46.80;22.10;;;5.60;99.90;;;;;;5094153;28;20028;-70
2021/03/23 04:16:55;;;;;;;42.92;20.13;;;5.60;99.90;;;;;;5108043;28;20024;-71
2021/03/23 04:19:21;;;;;;;49.60;22.05;;;5.70;99.90;;;;;;5092944;28;20434;-72
2021/03/23 04:21:46;;;;;;;45.78;20.90;;;5.70;99.90;;;;;;5093518;28;20058;-71
2021/03/23 04:24:12;;;;;;;44.03;21.67;;;5.70;99.90;;;;;;5093631;28;20017;-72
2021/03/23 04:26:38;;;;;;;47.45;22.65;;;5.70;99.90;;;;;;5093045;28;20028;-72
2021/03/23 04:29:03;;;;;;;45.55;21.40;;;5.70;99.90;;;;;;5093516;28;20016;-71
2021/03/23 04:31:38;;;;;;;52.70;22.35;;;5.80;99.90;;;;;;5093749;28;20028;-72
2021/03/23 04:34:06;;;;;;;47.08;22.77;;;5.80;99.90;;;;;;5091799;28;20043;-72
2021/03/23 04:36:31;;;;;;;44.75;21.25;;;5.80;99.90;;;;;;5093473;28;20031;-71
2021/03/23 04:38:57;;;;;;;47.92;23.25;;;5.90;99.90;;;;;;5093192;28;20228;-71
2021/03/23 04:41:23;;;;;;;56.92;23.65;;;5.90;99.90;;;;;;5092559;28;20312;-72
2021/03/23 04:43:50;;;;;;;42.90;21.08;;;5.90;99.90;;;;;;5093677;28;20858;-72
2021/03/23 04:46:23;;;;;;;46.90;23.50;;;5.90;99.90;;;;;;5092979;28;20058;-71
2021/03/23 04:48:52;;;;;;;54.88;23.23;;;6.00;99.90;;;;;;5092510;28;20468;-72
2021/03/23 04:51:19;;;;;;;41.42;21.88;;;6.00;99.90;;;;;;5107192;28;20028;-72
2021/03/23 04:53:45;;;;;;;52.80;22.50;;;6.00;99.90;;;;;;5093019;28;20020;-72
2021/03/23 04:56:38;;;;;;;45.25;22.58;;;6.00;99.90;;;;;;5092557;28;20101;-72
2021/03/23 04:59:05;;;;;;;52.35;22.63;;;6.10;99.90;;;;;;5091004;28;20483;-72
2021/03/23 05:01:30;;;;;;;55.42;24.83;;;6.10;99.90;;;;;;5092334;28;20024;-72
2021/03/23 05:03:59;;;;;;;44.00;23.48;;;6.10;99.90;;;;;;5093268;28;20031;-72
2021/03/23 05:06:25;;;;;;;53.50;23.25;;;6.10;99.90;;;;;;5092536;28;20510;-72
2021/03/23 05:08:51;;;;;;;44.72;22.98;;;6.10;99.90;;;;;;5092306;28;20032;-72
2021/03/23 05:11:20;;;;;;;48.47;22.75;;;6.00;99.90;;;;;;5092293;28;20024;-72
2021/03/23 05:13:46;;;;;;;49.83;24.52;;;6.10;99.90;;;;;;5092565;28;20035;-71
2021/03/23 05:16:13;;;;;;;49.72;24.02;;;6.20;99.90;;;;;;5090974;28;20067;-71
2021/03/23 05:18:38;;;;;;;51.72;24.80;;;6.20;99.90;;;;;;5092753;28;20022;-71
2021/03/23 05:21:05;;;;;;;50.30;22.77;;;6.20;99.90;;;;;;5092614;28;20028;-72
2021/03/23 05:23:31;;;;;;;55.65;25.50;;;6.20;99.90;;;;;;5091702;28;20046;-72
2021/03/23 05:25:57;;;;;;;56.33;26.85;;;6.20;99.90;;;;;;5092686;28;20047;-72
2021/03/23 05:28:22;;;;;;;49.65;25.20;;;6.20;99.90;;;;;;5092062;28;20464;-72
2021/03/23 05:30:50;;;;;;;52.28;25.33;;;6.20;99.90;;;;;;5092200;28;20476;-72
2021/03/23 05:33:16;;;;;;;58.40;26.30;;;6.20;99.90;;;;;;5092652;28;20111;-72
2021/03/23 05:35:42;;;;;;;64.43;26.52;;;6.30;99.90;;;;;;5092794;28;20032;-71
2021/03/23 05:38:10;;;;;;;62.15;26.52;;;6.30;99.90;;;;;;5093867;28;20024;-70
2021/03/23 05:40:43;;;;;;;62.63;28.25;;;6.30;99.90;;;;;;5095663;28;20016;-72
2021/03/23 05:43:31;;;;;;;62.67;27.83;;;6.30;99.90;;;;;;5092739;28;20032;-71
2021/03/23 05:46:09;;;;;;;72.60;29.02;;;6.30;99.90;;;;;;5092065;28;20041;-72
2021/03/23 05:48:36;;;;;;;69.50;29.98;;;6.30;99.90;;;;;;5092277;28;20043;-71
2021/03/23 05:51:10;;;;;;;72.10;29.17;;;6.40;99.90;;;;;;5105539;28;20024;-71
2021/03/23 05:53:54;;;;;;;71.07;29.15;;;6.30;99.90;;;;;;5091939;28;20020;-71
2021/03/23 05:56:21;;;;;;;76.47;30.30;;;6.40;99.90;;;;;;5091565;28;20158;-70
2021/03/23 05:58:50;;;;;;;77.88;31.58;;;6.40;99.90;;;;;;5091177;28;20028;-71
2021/03/23 06:01:31;;;;;;;75.00;32.22;;;6.40;99.90;;;;;;5091350;28;20536;-71
2021/03/23 06:04:44;;;;;;;75.50;31.15;;;6.40;99.90;;;;;;5096306;28;20106;-71
2021/03/23 06:07:13;;;;;;;81.05;30.30;;;6.40;99.90;;;;;;5080952;28;20032;-70
2021/03/23 06:09:40;;;;;;;83.85;32.25;;;6.40;99.90;;;;;;5103978;28;20024;-71
2021/03/23 06:12:15;;;;;;;76.05;31.10;;;6.40;99.90;;;;;;5106309;28;20016;-71
2021/03/23 06:14:49;;;;;;;86.30;33.40;;;6.40;99.90;;;;;;5107043;28;20020;-72
2021/03/23 06:17:41;;;;;;;83.88;33.08;;;6.40;99.90;;;;;;5107456;28;20428;-71
2021/03/23 06:20:26;;;;;;;91.03;32.00;;;6.50;99.90;;;;;;5104801;28;20017;-71
2021/03/23 06:23:30;;;;;;;88.85;33.40;;;6.50;99.90;;;;;;5109282;28;20023;-72
2021/03/23 06:26:19;;;;;;;80.47;32.63;;;6.50;99.90;;;;;;5108154;28;20356;-72
2021/03/23 06:29:01;;;;;;;79.57;31.08;;;6.50;99.90;;;;;;5109032;28;20048;-71
2021/03/23 06:31:43;;;;;;;88.32;33.50;;;6.50;99.90;;;;;;5113451;28;20035;-71
2021/03/23 06:34:42;;;;;;;86.25;33.15;;;6.50;99.90;;;;;;5112458;28;20016;-72
2021/03/23 06:37:20;;;;;;;90.97;33.72;;;6.50;99.90;;;;;;5107311;28;20071;-70
2021/03/23 06:39:47;;;;;;;85.85;33.67;;;6.60;99.90;;;;;;5106750;28;20046;-71
2021/03/23 06:42:28;;;;;;;91.93;35.08;;;6.60;99.90;;;;;;5112474;28;20438;-71
2021/03/23 06:45:08;;;;;;;84.88;34.17;;;6.60;99.90;;;;;;5112246;28;20032;-71
2021/03/23 06:47:37;;;;;;;87.15;33.30;;;6.60;99.90;;;;;;5111767;28;20631;-71
2021/03/23 06:50:21;;;;;;;88.40;33.22;;;6.70;99.90;;;;;;5110554;28;20418;-71
2021/03/23 06:53:07;;;;;;;100.32;34.92;;;6.60;99.90;;;;;;5112880;28;20084;-73
2021/03/23 06:55:33;;;;;;;109.93;35.28;;;6.70;99.90;;;;;;5109774;28;20043;-72
2021/03/23 06:58:00;;;;;;;87.60;36.00;;;6.70;99.90;;;;;;5104750;28;20062;-73
2021/03/23 07:00:31;;;;;;;101.85;34.70;;;6.70;99.90;;;;;;5106455;28;20542;-73
2021/03/23 07:03:24;;;;;;;94.72;36.28;;;6.70;99.90;;;;;;5098118;28;20028;-73
2021/03/23 07:05:52;;;;;;;86.50;34.35;;;6.70;99.90;;;;;;5109793;28;20368;-73
2021/03/23 07:08:21;;;;;;;90.32;35.55;;;6.80;99.90;;;;;;5110660;28;20089;-73
2021/03/23 07:10:53;;;;;;;90.82;34.28;;;6.80;99.90;;;;;;5100648;28;20035;-73
2021/03/23 07:13:31;;;;;;;93.32;35.80;;;6.80;99.90;;;;;;5094147;28;20345;-73
2021/03/23 07:16:11;;;;;;;94.38;35.72;;;6.90;99.90;;;;;;5112075;28;20065;-74
2021/03/23 07:18:45;;;;;;;94.63;36.22;;;7.00;99.90;;;;;;5095155;28;20020;-72
2021/03/23 07:21:14;;;;;;;97.90;36.33;;;7.00;99.90;;;;;;5094558;28;20047;-73
2021/03/23 07:23:44;;;;;;;86.55;34.17;;;7.10;99.90;;;;;;5098853;28;20016;-71
2021/03/23 07:26:29;;;;;;;85.55;36.03;;;7.20;99.90;;;;;;5093312;28;20056;-72
2021/03/23 07:29:10;;;;;;;92.65;36.67;;;7.20;99.90;;;;;;5101658;28;20043;-73
2021/03/23 07:31:45;;;;;;;91.38;35.33;;;7.30;99.90;;;;;;5113079;28;20031;-71
2021/03/23 07:34:41;;;;;;;94.88;36.17;;;7.30;99.90;;;;;;5096164;28;20383;-71
2021/03/23 07:37:17;;;;;;;78.57;33.42;;;7.40;99.90;;;;;;5106069;28;20039;-75
2021/03/23 07:40:06;;;;;;;85.43;35.53;;;7.40;99.90;;;;;;5098703;28;20085;-76
2021/03/23 07:42:38;;;;;;;93.38;35.33;;;7.50;99.90;;;;;;5110582;28;20081;-76
2021/03/23 07:45:21;;;;;;;87.43;35.10;;;7.50;99.90;;;;;;5105924;28;20020;-75
2021/03/23 07:48:10;;;;;;;94.22;34.65;;;8.10;99.90;;;;;;5093907;28;20487;-77
2021/03/23 07:50:39;;;;;;;87.90;34.92;;;7.60;99.90;;;;;;5098640;28;20475;-76
2021/03/23 07:53:33;;;;;;;86.90;35.13;;;7.60;99.90;;;;;;5097222;28;20475;-77
2021/03/23 07:56:26;;;;;;;84.97;32.72;;;7.70;99.90;;;;;;5102385;28;20040;-76
2021/03/23 07:58:55;;;;;;;86.53;33.75;;;7.80;99.90;;;;;;5100482;27;20604;-75
2021/03/23 08:01:55;;;;;;;96.43;33.50;;;7.80;99.90;;;;;;5093496;28;21470;-77
2021/03/23 08:04:39;;;;;;;98.90;34.88;;;7.80;99.90;;;;;;5093387;28;20027;-76
2021/03/23 08:07:18;;;;;;;87.07;33.70;;;7.80;99.90;;;;;;5093778;28;20027;-77
2021/03/23 08:10:08;;;;;;;75.05;32.08;;;7.90;99.90;;;;;;5107181;28;20022;-77
2021/03/23 08:13:08;;;;;;;97.10;33.75;;;8.00;99.90;;;;;;5096097;28;20383;-76
2021/03/23 08:15:54;;;;;;;97.10;33.97;;;8.00;99.90;;;;;;5093710;28;20044;-76
2021/03/23 08:19:07;;;;;;;81.55;32.20;;;8.00;99.90;;;;;;5099190;28;20008;-76
2021/03/23 08:22:10;;;;;;;82.55;31.52;;;8.10;99.90;;;;;;5100534;28;20038;-76
2021/03/23 08:24:57;;;;;;;84.63;30.83;;;8.10;99.90;;;;;;5098400;28;20077;-77
2021/03/23 08:27:58;;;;;;;71.07;30.00;;;8.20;99.90;;;;;;5092179;28;20111;-77
2021/03/23 08:30:27;;;;;;;79.90;32.47;;;8.30;99.90;;;;;;5064449;28;20464;-76
2021/03/23 08:33:33;;;;;;;80.68;31.40;;;8.30;99.90;;;;;;5106708;28;20073;-75
2021/03/23 08:36:29;;;;;;;76.40;31.73;;;8.40;99.90;;;;;;5096713;28;20035;-76
2021/03/23 08:39:23;;;;;;;72.07;32.40;;;8.40;99.90;;;;;;5099983;28;20024;-76
2021/03/23 08:42:13;;;;;;;62.60;30.95;;;8.50;99.90;;;;;;5099101;28;20036;-79
2021/03/23 08:44:50;;;;;;;73.45;29.58;;;8.60;99.90;;;;;;5099257;28;20489;-75
2021/03/23 08:47:22;;;;;;;72.68;29.48;;;8.60;99.90;;;;;;5109827;28;20040;-77
2021/03/23 08:49:48;;;;;;;66.63;30.67;;;8.70;99.90;;;;;;5112902;28;20517;-76
2021/03/23 08:52:36;;;;;;;72.53;31.25;;;8.70;99.90;;;;;;5101837;28;20048;-76
2021/03/23 08:55:27;;;;;;;65.78;31.23;;;8.70;99.90;;;;;;5099953;28;20035;-79
2021/03/23 08:58:09;;;;;;;69.30;29.80;;;8.80;99.90;;;;;;5095710;28;20491;-77
2021/03/23 09:00:34;;;;;;;71.10;31.38;;;8.80;99.90;;;;;;5092860;28;20031;-75
2021/03/23 09:03:07;;;;;;;64.22;30.75;;;8.80;99.90;;;;;;5093204;28;20020;-74
2021/03/23 09:05:53;;;;;;;68.07;29.20;;;8.80;99.90;;;;;;5093663;28;20028;-73
2021/03/23 09:08:21;;;;;;;70.53;31.83;;;8.80;99.90;;;;;;5107006;28;20124;-75
2021/03/23 09:11:33;;;;;;;69.25;30.92;;;8.90;99.90;;;;;;5092962;28;20028;-73
2021/03/23 09:14:08;;;;;;;69.93;32.10;;;8.90;99.90;;;;;;5092463;28;20031;-74
2021/03/23 09:16:48;;;;;;;68.50;30.88;;;8.90;99.90;;;;;;5092559;28;20044;-73
2021/03/23 09:19:35;;;;;;;64.03;31.40;;;9.10;99.90;;;;;;5094708;28;20031;-75
2021/03/23 09:22:01;;;;;;;70.72;31.13;;;9.20;99.90;;;;;;5092614;28;20099;-73
2021/03/23 09:24:45;;;;;;;71.13;32.03;;;9.30;99.90;;;;;;5096012;28;20542;-73
2021/03/23 09:27:36;;;;;;;62.33;29.58;;;9.40;99.90;;;;;;5101176;28;20023;-74
2021/03/23 09:30:40;;;;;;;67.53;31.45;;;9.40;99.90;;;;;;5101108;28;20111;-75
2021/03/23 09:33:28;;;;;;;62.75;30.50;;;9.40;99.90;;;;;;5098304;28;20566;-73
2021/03/23 09:36:19;;;;;;;71.50;30.35;;;9.40;99.90;;;;;;5095744;28;20056;-74
2021/03/23 09:38:49;;;;;;;70.13;31.88;;;9.50;99.90;;;;;;5100771;28;20135;-74
2021/03/23 09:41:20;;;;;;;73.18;34.60;;;9.60;99.90;;;;;;5098223;28;20164;-74
2021/03/23 09:43:47;;;;;;;68.95;29.25;;;9.70;99.90;;;;;;5098035;28;20028;-74
2021/03/23 09:46:21;;;;;;;62.58;30.50;;;9.70;99.90;;;;;;5100992;28;20016;-74
2021/03/23 09:49:08;;;;;;;63.90;30.58;;;9.70;99.90;;;;;;5099190;28;20097;-73
2021/03/23 09:51:44;;;;;;;59.75;30.75;;;9.80;99.90;;;;;;5108018;28;20019;-73
2021/03/23 09:54:37;;;;;;;64.10;30.35;;;9.80;99.90;;;;;;5105609;28;20023;-75
2021/03/23 09:57:12;;;;;;;57.50;29.50;;;9.80;99.90;;;;;;5102884;28;20035;-74
2021/03/23 09:59:45;;;;;;;57.25;28.38;;;9.90;99.90;;;;;;5100901;28;20028;-75
2021/03/23 10:02:22;;;;;;;65.97;31.13;;;9.90;99.90;;;;;;5096364;28;20035;-75
2021/03/23 10:04:48;;;;;;;69.22;31.90;;;10.00;99.90;;;;;;5098270;28;20048;-75
2021/03/23 10:07:29;;;;;;;53.50;28.70;;;10.10;99.90;;;;;;5096539;28;20093;-75
2021/03/23 10:10:09;;;;;;;55.95;28.92;;;10.20;99.90;;;;;;5099563;28;20020;-75
2021/03/23 10:12:34;;;;;;;60.85;27.95;;;10.30;99.90;;;;;;5099506;28;20024;-74
2021/03/23 10:15:21;;;;;;;60.95;30.00;;;10.30;99.90;;;;;;5096050;28;20514;-75
2021/03/23 10:17:47;;;;;;;61.40;29.98;;;10.30;99.90;;;;;;5099049;28;20431;-74
2021/03/23 10:20:19;;;;;;;68.13;30.83;;;10.40;99.90;;;;;;5095167;28;20038;-74
2021/03/23 10:22:53;;;;;;;62.47;28.60;;;10.40;99.90;;;;;;5112720;28;20016;-73
2021/03/23 10:25:20;;;;;;;65.10;30.08;;;10.40;99.90;;;;;;5102414;28;20027;-73
2021/03/23 10:27:47;;;;;;;67.07;29.88;;;10.40;99.90;;;;;;5097254;28;20035;-74
2021/03/23 10:30:16;;;;;;;59.80;29.88;;;10.30;99.90;;;;;;5102026;28;20031;-76
2021/03/23 10:32:53;;;;;;;65.45;30.52;;;10.30;99.90;;;;;;5101260;28;20016;-73
2021/03/23 10:35:38;;;;;;;67.32;29.20;;;10.20;99.90;;;;;;5094549;28;20036;-74
2021/03/23 10:38:24;;;;;;;67.10;29.63;;;10.20;99.90;;;;;;5094147;28;20504;-75
2021/03/23 10:41:16;;;;;;;60.78;30.33;;;10.20;99.90;;;;;;5103038;28;20449;-74
2021/03/23 10:43:43;;;;;;;55.17;28.58;;;10.20;99.90;;;;;;5090956;28;20547;-73
2021/03/23 10:46:36;;;;;;;56.13;29.83;;;10.20;99.90;;;;;;5089904;28;20038;-74
2021/03/23 10:49:22;;;;;;;59.63;29.83;;;10.30;99.90;;;;;;5105053;28;20031;-73
2021/03/23 10:51:50;;;;;;;54.30;28.52;;;10.30;99.90;;;;;;5097746;28;20077;-74
2021/03/23 10:54:24;;;;;;;54.30;28.70;;;10.40;99.90;;;;;;5100257;28;20077;-74
2021/03/23 10:56:56;;;;;;;66.25;30.00;;;10.50;99.90;;;;;;5099334;28;20108;-75
2021/03/23 10:59:31;;;;;;;59.22;30.27;;;10.60;99.90;;;;;;5096749;28;20360;-75
2021/03/23 11:02:08;;;;;;;57.33;28.98;;;10.70;99.90;;;;;;5093425;28;20028;-76
2021/03/23 11:04:37;;;;;;;63.28;30.35;;;10.80;99.90;;;;;;5099511;28;20027;-74
2021/03/23 11:07:23;;;;;;;65.18;31.50;;;10.80;99.90;;;;;;5096136;28;20020;-73
2021/03/23 11:09:58;;;;;;;63.25;29.73;;;10.70;99.90;;;;;;5093148;28;20035;-74
2021/03/23 11:12:25;;;;;;;64.60;30.77;;;10.70;99.90;;;;;;5104876;28;20032;-74
2021/03/23 11:14:52;;;;;;;72.97;32.03;;;10.60;99.90;;;;;;5107616;28;20054;-74
2021/03/23 11:17:24;;;;;;;59.17;29.00;;;10.60;99.90;;;;;;5101271;28;20077;-73
2021/03/23 11:20:00;;;;;;;63.35;32.20;;;10.60;99.90;;;;;;5107605;28;20365;-74
2021/03/23 11:22:31;;;;;;;62.35;30.65;;;10.60;99.90;;;;;;5093418;28;20056;-74
2021/03/23 11:24:58;;;;;;;66.60;31.27;;;10.60;99.90;;;;;;5104744;28;20053;-75
2021/03/23 11:27:27;;;;;;;58.33;29.90;;;10.60;99.90;;;;;;5105555;28;20161;-75
2021/03/23 11:29:54;;;;;;;59.05;30.05;;;10.70;99.90;;;;;;5103616;28;20024;-76
2021/03/23 11:32:20;;;;;;;69.85;31.55;;;10.70;99.90;;;;;;5092706;28;20438;-74
2021/03/23 11:34:46;;;;;;;65.07;31.00;;;10.60;99.90;;;;;;5099957;28;20564;-75
2021/03/23 11:37:15;;;;;;;64.53;32.72;;;10.80;99.90;;;;;;5101123;28;20024;-75
2021/03/23 11:39:40;;;;;;;68.25;33.08;;;10.80;99.90;;;;;;5106050;28;20064;-75
2021/03/23 11:42:16;;;;;;;67.95;32.78;;;10.90;99.90;;;;;;5106001;28;20019;-75
2021/03/23 11:44:44;;;;;;;66.80;32.28;;;10.90;99.90;;;;;;5096737;28;20020;-74
2021/03/23 11:47:25;;;;;;;67.40;32.42;;;11.00;99.90;;;;;;5096696;28;20028;-76
2021/03/23 11:50:05;;;;;;;69.15;32.17;;;11.00;99.90;;;;;;5107058;27;20422;-76
2021/03/23 11:52:31;;;;;;;66.78;31.27;;;10.90;99.90;;;;;;5102578;28;20031;-77
2021/03/23 11:54:58;;;;;;;59.88;31.15;;;10.90;99.90;;;;;;5100428;28;20036;-75
2021/03/23 11:57:25;;;;;;;54.17;30.60;;;10.80;99.90;;;;;;5104943;28;20055;-75
2021/03/23 11:59:51;;;;;;;62.63;30.88;;;10.80;99.90;;;;;;5110532;28;20495;-75
2021/03/23 12:02:17;;;;;;;63.00;32.45;;;10.70;99.90;;;;;;5103331;28;20023;-76
2021/03/23 12:04:43;;;;;;;61.17;31.58;;;10.70;99.90;;;;;;5107620;28;20165;-75
2021/03/23 12:07:30;;;;;;;58.88;30.45;;;10.60;99.90;;;;;;5109861;28;20055;-75
2021/03/23 12:10:10;;;;;;;67.35;33.85;;;10.60;99.90;;;;;;5107084;28;20019;-78
2021/03/23 12:12:54;;;;;;;;;;;10.60;99.90;;;;;;5100262;28;20024;-76
2021/03/23 12:15:25;;;;;;;56.35;30.05;;;10.60;99.90;;;;;;5108255;28;19919;-77
2021/03/23 12:17:55;;;;;;;51.92;29.73;;;10.60;99.90;;;;;;5105805;28;20039;-76
2021/03/23 12:20:24;;;;;;;53.92;28.73;;;10.60;99.90;;;;;;5109728;28;20054;-76
2021/03/23 12:22:51;;;;;;;58.17;30.35;;;10.50;99.90;;;;;;5105227;28;20069;-76
2021/03/23 12:25:23;;;;;;;54.13;29.17;;;10.50;99.90;;;;;;5101834;28;20016;-76
2021/03/23 12:27:50;;;;;;;53.22;28.65;;;10.50;99.90;;;;;;5093074;28;20028;-75
2021/03/23 12:30:16;;;;;;;49.95;27.63;;;10.40;99.90;;;;;;5100916;28;20035;-75
2021/03/23 12:32:42;;;;;;;43.50;27.13;;;10.40;99.90;;;;;;5108763;28;20027;-76
2021/03/23 12:35:13;;;;;;;47.55;24.48;;;10.40;99.90;;;;;;5107464;28;20035;-76
2021/03/23 12:37:41;;;;;;;43.60;26.00;;;10.40;99.90;;;;;;5102495;28;20114;-74
2021/03/23 12:40:10;;;;;;;48.35;25.17;;;10.40;99.90;;;;;;5099669;28;20146;-75
2021/03/23 12:42:35;;;;;;;41.90;25.08;;;10.40;99.90;;;;;;5107770;28;20036;-75
2021/03/23 12:45:02;;;;;;;48.10;28.02;;;10.30;99.90;;;;;;5105046;28;20023;-76
2021/03/23 12:47:28;;;;;;;45.85;26.73;;;10.30;99.90;;;;;;5103558;28;20046;-75
2021/03/23 12:49:53;;;;;;;46.58;25.45;;;10.30;99.90;;;;;;5102431;28;20467;-76
2021/03/23 12:52:22;;;;;;;48.78;26.60;;;10.40;99.90;;;;;;5103157;28;20024;-76
2021/03/23 12:54:55;;;;;;;45.53;26.02;;;10.40;99.90;;;;;;5105008;28;20021;-74
2021/03/23 12:57:26;;;;;;;50.97;26.88;;;10.50;99.90;;;;;;5105641;28;20027;-76
2021/03/23 12:59:54;;;;;;;40.63;23.48;;;10.50;99.90;;;;;;5108702;28;20031;-77
2021/03/23 13:02:24;;;;;;;62.00;33.97;;;10.50;99.90;;;;;;5104945;28;20024;-75
2021/03/23 13:04:50;;;;;;;65.35;30.50;;;10.60;99.90;;;;;;5099283;28;20031;-75